Time;durP1;ratioP1;P1;durP2;ratioP2;P2;SDS_P1;SDS_P2;PMS_P1;PMS_P2;Temp;Humidity;BMP_temperature;BMP_pressure;BME280_temperature;BME280_humidity;BME280_pressure;Samples;Min_cycle;Max_cycle;Signal;HPM_P1;HPM_P2
2022/06/12 00:01:22;;;;;;;;;;;19.70;98.70;;;16.75;92.94;101217.63;4986439;28;19965;-84
2022/06/12 00:03:49;;;;;;;;;;;19.70;98.40;;;16.74;93.48;101213.16;4990987;28;19932;-86
2022/06/12 00:06:17;;;;;;;;;;;19.70;98.60;;;16.72;93.91;101215.28;4990415;28;20020;-86
2022/06/12 00:09:30;;;;;;;;;;;19.60;98.90;;;16.75;93.41;101208.50;4986690;28;19936;-86
2022/06/12 00:31:05;;;;;;;;;;;19.60;97.90;;;16.65;92.33;101206.16;4763574;30;19940;-83
2022/06/12 00:33:34;;;;;;;;;;;19.50;98.10;;;16.63;93.12;101204.69;4811964;29;20023;-83
2022/06/12 00:36:02;;;;;;;;;;;19.50;98.70;;;16.61;91.95;101208.47;4857943;29;19934;-84
2022/06/12 00:38:29;;;;;;;;;;;19.50;98.20;;;16.60;92.07;101216.91;4899252;29;19930;-83
2022/06/12 00:41:03;;;;;;;;;;;19.50;98.00;;;16.59;91.66;101215.25;4933067;29;19931;-83
2022/06/12 00:43:31;;;;;;;;;;;19.50;97.80;;;16.57;91.34;101217.34;4932901;29;19973;-84
2022/06/12 00:46:00;;;;;;;;;;;19.50;97.60;;;16.53;92.62;101218.81;4931330;29;20049;-83
2022/06/12 00:48:29;;;;;;;;;;;19.50;98.20;;;16.41;92.48;101222.16;4928378;29;20527;-84
2022/06/12 00:50:59;;;;;;;;;;;19.40;98.10;;;16.36;93.36;101226.59;4930693;29;20013;-83
2022/06/12 00:53:33;;;;;;;;;;;19.40;98.40;;;16.23;94.18;101224.63;4932762;29;19933;-84
2022/06/12 00:56:13;;;;;;;;;;;19.40;98.60;;;16.19;94.46;101221.44;4944232;28;20728;-83
2022/06/12 00:58:44;;;;;;;;;;;19.30;98.70;;;16.16;94.95;101210.88;4972866;28;20016;-84
2022/06/12 01:01:18;;;;;;;;;;;19.30;99.10;;;16.13;95.01;101221.44;5066495;28;19928;-83
2022/06/12 01:06:36;;;;;;;;;;;19.30;99.10;;;16.02;96.52;101212.69;5054190;28;20077;-83
2022/06/12 01:09:11;;;;;;;;;;;19.20;99.50;;;15.96;96.08;101213.50;5070562;28;19956;-83
2022/06/12 01:11:41;;;;;;;;;;;19.20;99.30;;;15.92;95.93;101208.66;5071473;28;20299;-83
2022/06/12 01:14:11;;;;;;;;;;;19.10;99.20;;;15.87;96.66;101201.00;5072417;28;20590;-83
2022/06/12 01:16:45;;;;;;;;;;;19.10;99.60;;;15.80;96.18;101197.38;5069679;28;19938;-83
2022/06/12 01:19:14;;;;;;;;;;;19.10;99.30;;;15.74;96.99;101206.41;5071288;28;19932;-84
2022/06/12 01:22:11;;;;;;;;;;;19.10;99.30;;;15.69;97.48;101206.13;5072261;28;19951;-83
2022/06/12 01:24:47;;;;;;;;;;;19.00;99.50;;;15.61;97.12;101210.75;5053360;28;19928;-83
2022/06/12 01:27:49;;;;;;;;;;;19.00;99.50;;;15.52;97.79;101209.22;5072098;28;20023;-83
2022/06/12 01:30:20;;;;;;;;;;;18.90;99.50;;;15.46;98.07;101207.28;5037960;28;19928;-84
2022/06/12 01:55:42;;;;;;;;;;;18.50;99.90;;;14.75;100.00;101204.53;4849424;29;20457;-84
2022/06/12 01:58:14;;;;;;;;;;;18.30;99.90;;;14.70;100.00;101205.13;4901858;29;19931;-83
2022/06/12 02:00:45;;;;;;;;;;;18.40;99.90;;;14.65;100.00;101213.06;4912632;29;19927;-83
2022/06/12 02:13:40;;;;;;;;;;;18.10;99.90;;;14.39;100.00;101203.50;4866024;29;20016;-85
2022/06/12 02:16:11;;;;;;;;;;;18.00;99.90;;;14.36;100.00;101206.59;4931456;29;19938;-83
2022/06/12 02:18:42;;;;;;;;;;;18.00;99.90;;;14.30;100.00;101201.91;4919407;29;20311;-82
2022/06/12 02:21:13;;;;;;;;;;;18.00;99.90;;;14.28;100.00;101204.84;4950926;29;19931;-82
2022/06/12 02:23:43;;;;;;;;;;;18.00;99.90;;;14.24;100.00;101200.78;4946083;29;19930;-83
2022/06/12 02:26:46;;;;;;;;;;;17.90;99.90;;;14.19;100.00;101203.25;4934477;29;20464;-85
2022/06/12 02:29:20;;;;;;;;;;;17.90;99.90;;;14.15;100.00;101201.09;4958456;28;19951;-83
2022/06/12 02:31:50;;;;;;;;;;;17.90;99.90;;;14.08;100.00;101196.34;4989179;28;19929;-84
2022/06/12 02:34:25;;;;;;;;;;;17.80;99.90;;;14.04;100.00;101195.06;4993193;28;20035;-84
2022/06/12 02:36:58;;;;;;;;;;;17.80;99.90;;;14.03;100.00;101197.97;5008479;28;19969;-84
2022/06/12 02:39:28;;;;;;;;;;;17.80;99.90;;;14.01;100.00;101200.06;5008090;28;19936;-84
2022/06/12 02:42:01;;;;;;;;;;;17.80;99.90;;;13.93;100.00;101203.75;5069677;28;20403;-85
2022/06/12 02:44:33;;;;;;;;;;;17.70;99.90;;;13.87;100.00;101210.81;5070290;28;19924;-85
2022/06/12 02:47:06;;;;;;;;;;;17.70;99.90;;;13.84;100.00;101204.88;5070459;28;19925;-85
2022/06/12 02:49:35;;;;;;;;;;;17.60;99.90;;;13.80;100.00;101198.09;5069624;28;19994;-85
2022/06/12 02:52:07;;;;;;;;;;;17.60;99.90;;;13.77;100.00;101201.22;5070487;28;19975;-84
2022/06/12 02:54:39;;;;;;;;;;;17.50;99.90;;;13.74;100.00;101199.69;5069697;28;19928;-85
2022/06/12 02:57:19;;;;;;;;;;;17.50;99.90;;;13.72;100.00;101198.19;5069399;28;19931;-85
2022/06/12 02:59:56;;;;;;;;;;;17.50;99.90;;;13.67;100.00;101194.13;5069531;28;19967;-85
2022/06/12 03:02:30;;;;;;;;;;;17.50;99.90;;;13.63;100.00;101191.94;5069316;28;20384;-85
2022/06/12 03:05:02;;;;;;;;;;;17.40;99.90;;;13.59;100.00;101194.22;5069963;28;19929;-85
2022/06/12 03:07:29;;;;;;;;;;;17.40;99.90;;;13.57;100.00;101189.97;5069431;28;19935;-85
2022/06/12 03:09:58;;;;;;;;;;;17.30;99.90;;;13.55;100.00;101184.69;5069421;28;19924;-84
2022/06/12 03:12:28;;;;;;;;;;;17.30;99.90;;;13.53;100.00;101186.75;5070136;28;20015;-84
2022/06/12 03:14:55;;;;;;;;;;;17.30;99.90;;;13.48;100.00;101201.00;5069715;28;19928;-85
2022/06/12 03:17:22;;;;;;;;;;;17.30;99.90;;;13.45;100.00;101193.16;5070239;28;19924;-84
2022/06/12 03:19:51;;;;;;;;;;;17.20;99.90;;;13.40;100.00;101192.03;5069114;28;19928;-84
2022/06/12 03:22:24;;;;;;;;;;;17.20;99.90;;;13.41;100.00;101193.75;5070002;28;19931;-84
2022/06/12 03:24:57;;;;;;;;;;;17.20;99.90;;;13.37;100.00;101195.16;5069758;28;20408;-85
2022/06/12 03:27:31;;;;;;;;;;;17.20;99.90;;;13.33;100.00;101191.94;5069708;28;19925;-85
2022/06/12 03:30:05;;;;;;;;;;;17.10;99.90;;;13.30;100.00;101192.31;5067882;28;19924;-84
2022/06/12 03:32:37;;;;;;;;;;;17.10;99.90;;;13.30;100.00;101198.59;5069584;28;20359;-84
2022/06/12 03:35:14;;;;;;;;;;;17.10;99.90;;;13.34;100.00;101200.97;5069791;28;19928;-84
2022/06/12 03:37:47;;;;;;;;;;;17.10;99.90;;;13.33;100.00;101202.00;5069018;28;20029;-84
2022/06/12 03:40:21;;;;;;;;;;;17.00;99.90;;;13.31;100.00;101207.69;5051884;28;19935;-84
2022/06/12 03:42:53;;;;;;;;;;;17.00;99.90;;;13.34;100.00;101200.97;5069582;28;19934;-84
2022/06/12 03:45:24;;;;;;;;;;;17.00;99.90;;;13.37;100.00;101198.72;5069895;28;19928;-84
2022/06/12 03:47:55;;;;;;;;;;;17.00;99.90;;;13.35;100.00;101208.16;5068569;28;20379;-84
2022/06/12 03:50:26;;;;;;;;;;;17.00;99.90;;;13.38;100.00;101202.31;5069789;28;20010;-84
2022/06/12 03:52:59;;;;;;;;;;;17.00;99.90;;;13.43;100.00;101197.97;5069341;28;19928;-85
2022/06/12 03:58:18;;;;;;;;;;;17.00;99.90;;;13.48;100.00;101206.47;5043994;28;20031;-84
2022/06/12 04:00:48;;;;;;;;;;;16.90;99.90;;;13.49;100.00;101207.31;5069538;28;19935;-84
2022/06/12 04:03:19;;;;;;;;;;;16.90;99.90;;;13.49;100.00;101210.91;5069331;28;20404;-85
2022/06/12 04:05:49;;;;;;;;;;;17.00;99.90;;;13.51;100.00;101207.97;5071973;28;20014;-85
2022/06/12 04:08:20;;;;;;;;;;;16.90;99.90;;;13.51;100.00;101204.41;5072809;28;19928;-84
2022/06/12 04:10:48;;;;;;;;;;;17.00;99.90;;;13.54;100.00;101199.41;5073831;28;20039;-84
2022/06/12 04:13:18;;;;;;;;;;;17.00;99.90;;;13.60;100.00;101212.34;5073296;28;20038;-85
2022/06/12 05:55:08;;;;;;;9.63;3.00;;;17.60;99.90;;;17.75;90.21;101192.03;5098962;27;20405;-81
2022/06/12 05:57:36;;;;;;;18.02;2.92;;;18.40;99.90;;;19.43;82.26;101178.97;5062585;27;20442;-86
2022/06/12 06:00:12;;;;;;;12.73;2.28;;;19.00;99.90;;;21.66;70.20;101183.75;5056677;27;20448;-80
2022/06/12 06:02:39;;;;;;;17.70;3.72;;;19.60;99.70;;;23.62;61.83;101189.13;5107573;27;20103;-80
2022/06/12 06:05:08;;;;;;;10.38;3.50;;;20.20;97.00;;;25.35;53.69;101186.69;5148417;27;20039;-80
2022/06/12 06:07:35;;;;;;;15.32;4.30;;;20.80;94.00;;;26.79;46.38;101178.16;5080079;27;20041;-80
2022/06/12 06:10:04;;;;;;;14.60;4.07;;;21.30;90.70;;;28.22;44.30;101185.53;5043824;28;20387;-80
2022/06/12 06:12:33;;;;;;;15.50;3.58;;;21.80;90.00;;;29.40;40.23;101182.78;5039738;27;20056;-81
2022/06/12 06:15:00;;;;;;;13.07;3.05;;;22.20;88.30;;;30.73;38.07;101183.16;5088953;27;20046;-80
2022/06/12 06:17:27;;;;;;;10.07;2.97;;;22.60;86.50;;;31.59;35.34;101189.63;5072589;27;20404;-80
2022/06/12 06:19:55;;;;;;;13.73;2.88;;;23.00;84.80;;;32.35;34.00;101192.91;5043573;28;20409;-81
2022/06/12 06:22:22;;;;;;;9.88;2.85;;;23.30;84.40;;;32.94;32.40;101184.50;5048418;27;20041;-80
2022/06/12 06:24:49;;;;;;;8.80;2.30;;;23.50;83.50;;;33.49;30.86;101203.13;5042847;28;20045;-80
2022/06/12 06:27:17;;;;;;;8.73;2.42;;;23.70;82.30;;;33.97;29.45;101190.28;5035689;27;20088;-81
2022/06/12 06:29:46;;;;;;;7.05;2.20;;;23.90;81.20;;;34.36;28.83;101197.03;5043323;28;20124;-80
2022/06/12 06:32:13;;;;;;;13.50;3.85;;;24.00;80.90;;;32.61;31.12;101189.50;5085108;27;20046;-80
2022/06/12 06:34:41;;;;;;;14.13;4.45;;;24.10;81.80;;;28.65;37.79;101195.13;5117950;27;20110;-81
2022/06/12 06:37:12;;;;;;;18.42;4.90;;;24.10;81.00;;;26.08;44.04;101208.38;5051893;27;20041;-80
2022/06/12 06:39:41;;;;;;;21.23;5.63;;;24.00;81.30;;;24.51;46.94;101201.16;5148514;27;20067;-80
2022/06/12 06:42:11;;;;;;;14.82;5.10;;;23.90;80.50;;;23.61;52.14;101206.94;5085184;27;20100;-80
2022/06/12 06:47:38;;;;;;;25.80;7.95;;;23.60;80.50;;;22.57;55.64;101209.00;5119386;22;20047;-78
2022/06/12 06:50:11;;;;;;;18.52;6.00;;;23.50;80.70;;;22.42;54.73;101206.75;5101583;28;20134;-78
2022/06/12 06:52:38;;;;;;;17.50;4.88;;;23.30;80.50;;;22.11;56.79;101208.03;5121011;27;20039;-79
2022/06/12 06:55:07;;;;;;;12.90;3.60;;;23.20;82.30;;;21.83;57.92;101211.56;5120723;27;20119;-79
2022/06/12 06:57:37;;;;;;;12.75;3.17;;;23.10;82.40;;;21.70;57.95;101218.19;5104450;27;20035;-80
2022/06/12 07:00:08;;;;;;;9.88;2.30;;;23.00;82.00;;;21.73;57.15;101217.72;5096792;28;20111;-81
2022/06/12 07:02:35;;;;;;;10.55;2.25;;;22.90;81.80;;;21.61;58.98;101216.88;5099177;27;20040;-80
2022/06/12 07:05:04;;;;;;;11.27;2.00;;;22.80;83.20;;;21.50;60.48;101212.19;5090107;28;20043;-80
2022/06/12 07:07:33;;;;;;;9.32;2.15;;;22.70;84.80;;;21.40;60.21;101209.97;5104260;28;20036;-80
2022/06/12 07:10:00;;;;;;;7.72;2.30;;;22.60;83.10;;;21.41;63.01;101222.75;5096617;28;20501;-80
2022/06/12 07:12:27;;;;;;;9.75;2.38;;;22.60;84.90;;;21.38;62.70;101214.91;5102332;28;20035;-80
2022/06/12 07:14:55;;;;;;;9.45;2.60;;;22.60;85.70;;;21.24;61.43;101214.31;5113335;27;20485;-80
2022/06/12 07:17:23;;;;;;;8.60;2.10;;;22.50;83.80;;;21.25;63.41;101216.00;5097903;28;20044;-80
2022/06/12 07:19:51;;;;;;;7.72;2.45;;;22.50;85.30;;;21.41;61.04;101215.28;5102655;28;20047;-80
2022/06/12 07:22:18;;;;;;;10.13;2.55;;;22.50;84.80;;;21.46;62.42;101209.06;5113275;27;20116;-80
2022/06/12 07:24:46;;;;;;;12.40;2.90;;;22.40;85.00;;;21.39;62.57;101211.91;5096173;28;20613;-80
2022/06/12 07:27:14;;;;;;;11.27;2.85;;;22.40;85.70;;;21.40;63.30;101219.16;5093800;28;20123;-80
2022/06/12 07:29:41;;;;;;;8.52;2.38;;;22.40;85.80;;;21.37;63.42;101219.59;5099009;28;20036;-80
2022/06/12 07:32:10;;;;;;;12.65;3.10;;;22.40;86.10;;;21.34;62.77;101213.69;5100147;28;20127;-80
2022/06/12 07:34:38;;;;;;;12.63;3.22;;;22.30;85.70;;;21.39;61.80;101220.22;5098848;28;20040;-80
2022/06/12 07:37:07;;;;;;;15.35;3.63;;;22.40;85.10;;;21.40;62.32;101219.16;5103388;28;20052;-80
2022/06/12 07:39:36;;;;;;;10.90;2.92;;;22.30;85.20;;;21.38;63.71;101221.31;5105455;28;20042;-80
2022/06/12 07:42:03;;;;;;;11.43;3.15;;;22.30;86.40;;;21.41;64.39;101215.28;5096974;28;20040;-80
2022/06/12 07:44:34;;;;;;;13.98;3.33;;;22.40;87.50;;;21.42;62.11;101213.38;5093117;28;20044;-80
2022/06/12 07:47:03;;;;;;;;;;;22.20;85.80;;;21.45;64.08;101218.44;5096018;28;20123;-80
2022/06/12 07:49:33;;;;;;;9.48;2.72;;;22.20;87.60;;;21.40;63.85;101219.16;5100720;28;20003;-80
2022/06/12 07:52:05;;;;;;;11.10;3.00;;;22.30;86.60;;;21.44;65.65;101219.53;5112539;28;20077;-80
2022/06/12 07:54:34;;;;;;;11.02;2.90;;;22.30;88.60;;;21.45;67.79;101216.50;5095296;28;20044;-80
2022/06/12 07:57:01;;;;;;;12.30;3.00;;;22.30;89.40;;;21.53;64.86;101208.94;5104223;28;20051;-80
2022/06/12 07:59:29;;;;;;;10.05;2.70;;;22.30;88.20;;;21.61;66.11;101211.34;5112357;28;20051;-80
2022/06/12 08:01:56;;;;;;;9.68;2.65;;;22.30;89.20;;;21.59;63.58;101210.72;5112384;28;20130;-80
2022/06/12 08:04:25;;;;;;;10.10;2.72;;;22.40;87.00;;;21.64;65.13;101213.63;5111467;28;20480;-81
2022/06/12 08:06:54;;;;;;;10.30;2.40;;;22.30;88.30;;;21.64;65.47;101214.47;5111126;28;20040;-82
2022/06/12 08:09:22;;;;;;;9.48;2.67;;;22.30;87.80;;;21.60;62.37;101217.97;5110526;28;20046;-80
2022/06/12 08:11:52;;;;;;;13.65;3.00;;;22.30;85.70;;;21.61;65.18;101214.09;5108894;28;20039;-82
2022/06/12 08:14:21;;;;;;;9.82;2.60;;;22.40;88.80;;;21.60;63.61;101224.34;5111943;28;20545;-82
2022/06/12 08:16:49;;;;;;;10.98;2.47;;;22.40;87.10;;;21.64;62.48;101210.88;5112050;28;20048;-83
2022/06/12 08:22:05;;;;;;;8.90;2.40;;;22.40;87.00;;;21.60;59.50;101218.81;5101967;28;20493;-83
2022/06/12 08:24:35;;;;;;;8.88;2.30;;;22.30;83.40;;;21.61;59.22;101214.97;5091232;28;20118;-83
2022/06/12 08:27:03;;;;;;;8.13;2.05;;;22.40;83.40;;;21.69;59.57;101213.75;5091297;28;20040;-82
2022/06/12 08:29:30;;;;;;;9.45;2.10;;;22.40;83.90;;;21.65;57.24;101210.63;5091450;28;20482;-83
2022/06/12 08:32:02;;;;;;;7.22;2.22;;;22.40;81.40;;;21.67;58.27;101213.16;5091450;28;20128;-82
2022/06/12 08:34:37;;;;;;;9.07;2.17;;;22.40;83.20;;;21.67;57.58;101205.69;5100006;28;20116;-83
2022/06/12 08:37:11;;;;;;;6.43;1.77;;;22.40;81.00;;;21.76;59.24;101208.94;5105163;28;20225;-82
2022/06/12 08:39:40;;;;;;;6.15;1.60;;;22.40;83.50;;;21.73;57.11;101200.28;5106680;28;20056;-82
2022/06/12 08:42:14;;;;;;;6.40;2.08;;;22.40;81.40;;;21.74;55.50;101208.34;5092690;28;20048;-82
2022/06/12 08:44:50;;;;;;;4.80;1.50;;;22.50;79.50;;;21.79;53.59;101210.38;5110227;28;20032;-81
2022/06/12 08:47:28;;;;;;;5.50;1.17;;;22.50;78.70;;;21.81;54.25;101210.97;5110415;28;20043;-78
2022/06/12 08:50:05;;;;;;;5.88;1.30;;;22.60;77.10;;;21.80;53.15;101212.91;5092693;28;20073;-77
2022/06/12 08:52:38;;;;;;;7.38;1.10;;;22.60;78.10;;;21.77;52.12;101213.38;5090836;28;20134;-77
2022/06/12 08:55:17;;;;;;;8.40;1.60;;;22.70;77.00;;;21.77;54.25;101213.38;5090177;28;20404;-77
2022/06/12 08:57:59;;;;;;;4.22;1.23;;;22.60;77.70;;;21.85;53.24;101204.69;5109043;28;20560;-78
2022/06/12 09:00:32;;;;;;;5.47;1.45;;;22.60;77.50;;;21.89;54.69;101198.69;5093636;28;20036;-78
2022/06/12 09:02:59;;;;;;;6.90;1.70;;;22.70;80.50;;;21.91;52.99;101191.78;5111060;28;20044;-78
2022/06/12 09:05:38;;;;;;;6.30;1.60;;;22.70;77.20;;;21.89;48.91;101193.13;5098625;28;20484;-77
2022/06/12 09:08:16;;;;;;;8.98;1.67;;;22.70;72.60;;;21.82;52.89;101190.50;5108508;28;20047;-78
2022/06/12 09:10:53;;;;;;;6.35;1.67;;;22.50;76.90;;;21.78;52.05;101187.38;5090009;28;20493;-77
2022/06/12 09:13:29;;;;;;;5.00;1.50;;;22.60;76.10;;;21.84;55.55;101188.34;5089982;28;20038;-78
2022/06/12 09:16:06;;;;;;;8.95;1.73;;;22.60;78.90;;;21.85;55.87;101176.97;5102260;28;20071;-78
2022/06/12 09:18:46;;;;;;;6.50;1.67;;;22.70;79.70;;;21.84;55.45;101186.41;5102378;28;20120;-77
2022/06/12 09:21:21;;;;;;;9.30;1.77;;;22.70;79.20;;;21.82;55.33;101177.47;5106395;28;20119;-79
2022/06/12 09:24:10;;;;;;;8.25;2.45;;;22.70;79.50;;;21.84;56.83;101175.31;5090525;28;20050;-81
2022/06/12 09:26:54;;;;;;;7.80;2.20;;;22.70;80.10;;;21.85;55.37;101184.47;5095336;28;20040;-82
2022/06/12 09:29:37;;;;;;;10.68;2.38;;;22.70;78.50;;;21.72;54.89;101185.56;5102858;28;20050;-82
2022/06/12 09:32:13;;;;;;;8.98;2.00;;;22.70;77.00;;;21.78;55.35;101176.28;5102233;28;20058;-82
2022/06/12 09:34:54;;;;;;;15.15;2.40;;;22.60;78.60;;;21.85;54.45;101174.22;5096481;28;20035;-82
2022/06/12 09:40:32;;;;;;;11.75;2.00;;;22.70;81.20;;;21.85;54.31;101174.22;5105669;28;20080;-81
2022/06/12 09:43:10;;;;;;;8.90;2.38;;;22.60;77.40;;;21.88;55.49;101174.84;5087911;28;20051;-81
2022/06/12 09:45:53;;;;;;;8.82;2.05;;;22.70;78.80;;;21.96;56.34;101171.69;5106588;28;20532;-81
2022/06/12 09:48:32;;;;;;;9.80;2.30;;;22.70;80.10;;;21.91;54.72;101171.56;5084409;28;20494;-82
2022/06/12 09:51:18;;;;;;;12.02;3.00;;;22.70;78.60;;;21.97;57.56;101165.91;5094463;28;20119;-82
2022/06/12 09:54:34;;;;;;;9.30;2.35;;;22.70;80.70;;;22.07;57.84;101162.50;5091731;28;20564;-81
2022/06/12 09:57:08;;;;;;;7.10;2.13;;;22.80;81.40;;;22.19;59.00;101159.69;5081064;28;20427;-82
2022/06/12 09:59:49;;;;;;;9.82;2.28;;;22.80;82.40;;;22.18;54.21;101160.75;5100592;28;20044;-82
2022/06/12 10:02:28;;;;;;;6.97;2.20;;;22.80;77.40;;;22.16;55.13;101155.47;5094019;28;20043;-81
2022/06/12 10:05:02;;;;;;;10.90;2.40;;;22.80;78.30;;;22.20;55.36;101158.56;5090166;28;20040;-81
2022/06/12 10:07:37;;;;;;;9.63;2.40;;;22.80;80.10;;;22.21;57.02;101154.72;5093086;28;20036;-82
2022/06/12 10:10:14;;;;;;;8.27;2.63;;;22.90;80.80;;;22.22;55.52;101160.03;5090191;28;20043;-81
2022/06/12 10:12:46;;;;;;;9.27;2.50;;;22.90;80.00;;;22.28;56.14;101152.69;5092583;28;20040;-83
2022/06/12 10:15:22;;;;;;;11.38;2.67;;;22.90;80.40;;;22.32;58.65;101156.66;5097226;28;20046;-82
2022/06/12 10:17:57;;;;;;;7.82;2.17;;;22.90;81.70;;;22.34;56.44;101156.41;5092152;28;20035;-82
2022/06/12 10:20:29;;;;;;;7.57;2.30;;;23.00;80.30;;;22.33;57.53;101146.38;5099120;28;20035;-81
2022/06/12 10:22:58;;;;;;;16.25;3.63;;;23.00;81.00;;;22.30;58.06;101141.34;5100374;28;20040;-82
2022/06/12 10:25:32;;;;;;;9.05;2.50;;;23.00;82.30;;;22.22;59.27;101143.38;5093628;28;20047;-82
2022/06/12 10:28:04;;;;;;;9.57;2.80;;;22.90;81.90;;;22.27;59.70;101139.91;5092098;28;20032;-83
2022/06/12 10:30:41;;;;;;;9.35;2.10;;;23.00;82.60;;;22.28;56.70;101147.13;5092239;28;20036;-83
2022/06/12 10:33:21;;;;;;;9.88;2.70;;;23.00;79.40;;;22.28;59.12;101140.75;5093900;28;20551;-82
2022/06/12 10:35:53;;;;;;;9.13;2.60;;;23.00;83.10;;;22.27;56.07;101139.91;5095832;28;20122;-82
2022/06/12 10:38:21;;;;;;;13.88;3.85;;;23.00;79.20;;;22.30;56.51;101133.03;5097916;28;20047;-82
2022/06/12 10:40:54;;;;;;;12.02;2.60;;;23.00;80.00;;;22.33;58.28;101127.84;5104326;28;20074;-82
2022/06/12 10:43:30;;;;;;;11.50;3.40;;;23.00;81.10;;;22.41;59.12;101129.38;5112605;28;20046;-82
2022/06/12 10:46:05;;;;;;;10.52;2.90;;;23.10;81.70;;;22.45;58.69;101120.28;5099139;28;20053;-83
2022/06/12 10:48:36;;;;;;;12.48;2.50;;;23.10;81.70;;;22.55;59.14;101121.56;5096058;28;20054;-82
2022/06/12 10:51:21;;;;;;;10.30;2.43;;;23.20;82.60;;;22.61;54.52;101129.72;5098810;28;20459;-82
2022/06/12 10:53:56;;;;;;;11.02;2.47;;;23.20;78.40;;;22.56;51.83;101118.56;5093288;28;20401;-82
2022/06/12 10:56:31;;;;;;;8.20;2.30;;;23.20;75.40;;;22.35;54.83;101114.56;5103354;28;20047;-82
2022/06/12 10:59:33;;;;;;;9.98;2.50;;;23.10;78.10;;;22.38;57.63;101115.97;5100511;28;20413;-82
2022/06/12 11:02:29;;;;;;;;;;;23.10;80.70;;;22.47;56.04;101116.44;5097944;28;20042;-83
2022/06/12 11:05:09;;;;;;;7.63;2.00;;;23.10;80.90;;;22.45;52.39;101114.72;5080904;28;19928;-81
2022/06/12 11:07:49;;;;;;;6.72;1.73;;;23.20;76.80;;;22.44;54.96;101113.03;5096317;28;20101;-81
2022/06/12 11:10:31;;;;;;;9.65;2.47;;;23.20;77.80;;;22.52;54.31;101117.34;5106799;28;20451;-81
2022/06/12 11:13:25;;;;;;;9.60;1.80;;;23.20;77.90;;;22.55;54.79;101114.06;5099195;28;20062;-80
2022/06/12 11:16:20;;;;;;;7.85;2.13;;;23.20;78.30;;;22.71;54.81;101101.31;5106686;27;20074;-81
2022/06/12 11:19:02;;;;;;;9.30;2.40;;;23.30;79.20;;;22.71;56.43;101108.78;5105367;27;20086;-80
2022/06/12 11:21:44;;;;;;;9.07;2.35;;;23.30;80.10;;;22.81;55.73;101111.75;5111853;28;20032;-82
2022/06/12 11:24:18;;;;;;;11.25;2.33;;;23.30;79.20;;;22.83;55.39;101098.47;5112112;28;20553;-82
2022/06/12 11:27:24;;;;;;;12.52;2.65;;;23.30;78.90;;;22.82;55.78;101088.44;5104981;28;20421;-82
2022/06/12 11:30:26;;;;;;;9.55;2.50;;;23.40;78.50;;;22.83;55.63;101092.91;5104388;28;20071;-82
2022/06/12 11:33:10;;;;;;;9.57;2.55;;;23.40;79.10;;;22.76;55.28;101103.34;5101675;28;20065;-82
2022/06/12 11:35:52;;;;;;;13.40;2.75;;;23.30;78.10;;;22.81;55.27;101111.75;5109359;28;20032;-82
2022/06/12 11:38:39;;;;;;;10.68;2.22;;;23.40;78.60;;;22.85;56.42;101099.06;5091952;28;20048;-82
2022/06/12 11:41:18;;;;;;;13.05;2.47;;;23.40;80.10;;;22.87;55.39;101101.59;5109453;28;20047;-83
2022/06/12 11:44:01;;;;;;;9.07;2.83;;;23.40;76.20;;;22.83;58.22;101098.47;5106489;28;20035;-82
2022/06/12 11:46:40;;;;;;;13.25;2.85;;;23.40;81.20;;;22.81;55.67;101097.88;5101458;28;20036;-81
2022/06/12 11:49:36;;;;;;;10.13;2.53;;;23.40;79.80;;;22.59;55.71;101097.78;5109539;28;20052;-81
2022/06/12 11:52:39;;;;;;;9.05;2.20;;;23.40;79.20;;;22.32;53.51;101097.56;5092263;28;20456;-85
2022/06/12 11:55:25;;;;;;;9.63;2.20;;;23.30;76.80;;;22.38;52.58;101102.94;5096747;28;20047;-81
2022/06/12 11:58:24;;;;;;;10.02;2.42;;;23.20;75.80;;;22.68;54.07;101098.22;5099315;28;20667;-80
2022/06/12 12:01:02;;;;;;;10.13;2.40;;;23.20;76.80;;;22.90;57.29;101092.72;5100969;27;20478;-80
2022/06/12 12:04:16;;;;;;;7.78;2.08;;;23.30;80.90;;;22.93;55.03;101081.13;5108769;28;20115;-81
2022/06/12 12:07:06;;;;;;;11.15;2.42;;;23.40;78.90;;;22.68;55.09;101098.22;5103524;28;20047;-81
2022/06/12 12:09:52;;;;;;;8.87;2.83;;;23.30;77.30;;;22.45;57.99;101091.72;5097496;28;20044;-81
2022/06/12 12:12:26;;;;;;;7.72;2.30;;;23.30;79.30;;;22.41;58.67;101090.53;5103353;28;20297;-81
2022/06/12 12:14:57;;;;;;;12.15;2.67;;;23.20;81.10;;;22.41;56.59;101090.53;5100804;28;20044;-81
2022/06/12 12:17:29;;;;;;;8.03;2.40;;;23.10;79.50;;;22.43;57.65;101091.97;5109823;28;20040;-81
2022/06/12 12:20:01;;;;;;;9.73;2.60;;;23.10;80.40;;;22.49;59.53;101086.50;5114556;27;20046;-81
2022/06/12 12:22:36;;;;;;;11.80;2.90;;;23.10;82.10;;;22.36;57.13;101093.22;5093414;28;20504;-83
2022/06/12 12:25:14;;;;;;;12.20;2.70;;;23.10;79.30;;;22.38;58.85;101086.31;5105933;28;20047;-80
2022/06/12 12:27:46;;;;;;;9.65;2.97;;;23.10;81.90;;;22.40;58.67;101083.28;5110305;28;20119;-80
2022/06/12 12:30:20;;;;;;;9.40;2.80;;;23.00;81.80;;;22.27;57.01;101083.59;5110081;28;20039;-80
2022/06/12 12:32:50;;;;;;;11.20;2.80;;;23.00;79.70;;;22.19;57.92;101080.09;5116932;27;20038;-80
2022/06/12 12:43:34;;;;;;;9.30;2.70;;;23.10;84.80;;;22.60;60.15;101080.88;5105511;28;20467;-82
2022/06/12 12:46:05;;;;;;;11.85;2.95;;;23.20;83.00;;;22.64;58.17;101073.72;5106620;28;20507;-82
2022/06/12 12:48:41;;;;;;;9.63;2.95;;;23.20;80.80;;;22.59;57.72;101076.41;5224358;22;20512;-81
2022/06/12 12:51:10;;;;;;;9.02;2.80;;;23.20;81.20;;;22.50;57.07;101072.38;5090139;28;20123;-80
2022/06/12 12:53:39;;;;;;;7.65;2.50;;;23.20;80.40;;;22.36;57.33;101076.56;5091533;28;20119;-81
2022/06/12 12:56:10;;;;;;;11.82;2.90;;;23.10;79.40;;;22.25;55.54;101067.22;5089026;28;20050;-80
2022/06/12 12:58:42;;;;;;;9.15;2.40;;;23.10;78.60;;;22.19;56.71;101069.00;5076668;28;20481;-81
2022/06/12 13:01:25;;;;;;;16.23;3.13;;;23.00;79.20;;;22.33;60.32;101069.59;5056575;28;20073;-81
2022/06/12 13:03:58;;;;;;;10.68;2.70;;;23.00;82.40;;;22.51;58.02;101062.97;5059404;28;20094;-81
2022/06/12 13:06:48;;;;;;;11.60;2.47;;;23.10;81.80;;;22.65;56.62;101058.75;5071359;28;20493;-81
2022/06/12 13:09:47;;;;;;;7.90;2.60;;;23.10;80.20;;;22.75;57.48;101051.69;5073251;28;20036;-81
2022/06/12 13:12:46;;;;;;;9.88;2.60;;;23.20;80.70;;;22.84;58.33;101055.72;5055377;28;20075;-81
2022/06/12 13:15:34;;;;;;;10.48;2.70;;;23.20;82.00;;;22.93;56.12;101065.31;5061843;28;20378;-81
2022/06/12 13:18:13;;;;;;;10.13;2.45;;;23.30;80.40;;;22.90;53.86;101054.72;5063762;28;20207;-81
2022/06/12 13:20:53;;;;;;;9.70;2.72;;;23.30;77.40;;;22.89;52.98;101053.03;5057279;28;20425;-81
2022/06/12 13:23:37;;;;;;;10.52;2.55;;;23.30;76.80;;;22.93;55.28;101043.09;5077124;28;20094;-81
2022/06/12 13:26:09;;;;;;;8.60;2.78;;;23.30;79.00;;;23.00;57.13;101038.22;5072327;28;20037;-81
2022/06/12 13:28:37;;;;;;;8.82;2.42;;;23.40;80.70;;;23.06;54.59;101032.78;5077768;28;20075;-80
2022/06/12 13:31:17;;;;;;;9.95;2.22;;;23.40;78.30;;;23.01;52.10;101033.50;5069819;28;20516;-81
2022/06/12 13:33:53;;;;;;;12.43;3.13;;;23.40;76.80;;;22.98;54.25;101034.88;5072764;28;20605;-82
2022/06/12 13:36:27;;;;;;;7.28;2.45;;;23.40;78.10;;;22.95;56.07;101038.13;5065152;28;20473;-81
2022/06/12 13:38:59;;;;;;;9.07;2.35;;;23.40;80.00;;;22.95;54.15;101029.81;5072518;28;20498;-78
2022/06/12 13:41:37;;;;;;;12.75;2.90;;;23.40;77.70;;;22.96;53.87;101027.88;5069324;28;20564;-81
2022/06/12 13:44:25;;;;;;;9.63;2.65;;;23.40;77.20;;;22.91;53.80;101025.88;5075425;28;20119;-81
2022/06/12 13:46:55;;;;;;;13.55;3.17;;;23.40;77.40;;;22.71;53.01;101022.78;5066759;28;20831;-81
2022/06/12 13:49:34;;;;;;;12.57;3.13;;;23.30;76.00;;;22.67;53.96;101016.06;5073529;28;20113;-81
2022/06/12 13:52:13;;;;;;;10.10;2.42;;;23.30;77.00;;;22.68;56.99;101015.81;5071130;28;20064;-81